createdAt,value
2023-04-28T00:00:58.722Z,9.38
2023-04-28T00:03:44.712Z,6.45
2023-04-28T00:06:30.931Z,6.95
2023-04-28T00:09:16.033Z,10.05
2023-04-28T00:12:02.671Z,8.68
2023-04-28T00:14:48.013Z,7.97
2023-04-28T00:17:34.338Z,9.30
2023-04-28T00:20:19.889Z,8.73
2023-04-28T00:23:06.113Z,6.97
2023-04-28T00:25:55.768Z,8.38
2023-04-28T00:28:41.002Z,6.82
2023-04-28T00:31:26.375Z,7.88
2023-04-28T00:34:14.402Z,7.07
2023-04-28T00:36:59.884Z,6.57
2023-04-28T00:39:48.089Z,8.00
2023-04-28T00:42:33.751Z,7.15
2023-04-28T00:45:19.183Z,6.68
2023-04-28T00:48:04.776Z,7.72
2023-04-28T00:50:51.358Z,6.78
2023-04-28T00:53:37.366Z,7.20
2023-04-28T00:56:22.877Z,7.88
2023-04-28T00:59:08.813Z,6.57
2023-04-28T01:01:54.011Z,7.85
2023-04-28T01:04:39.509Z,7.13
2023-04-28T01:07:25.474Z,7.10
2023-04-28T01:10:11.063Z,6.85
2023-04-28T01:12:56.605Z,12.00
2023-04-28T01:15:42.026Z,8.18
2023-04-28T01:18:27.901Z,6.30
2023-04-28T01:21:13.559Z,5.57
2023-04-28T01:23:59.596Z,6.78
2023-04-28T01:27:03.942Z,7.50
2023-04-28T01:29:49.423Z,5.95
2023-04-28T01:32:34.855Z,5.90
2023-04-28T01:35:21.326Z,6.30
2023-04-28T01:38:07.761Z,5.93
2023-04-28T01:40:55.467Z,6.53
2023-04-28T01:43:41.164Z,7.20
2023-04-28T01:46:26.692Z,6.28
2023-04-28T01:49:12.515Z,6.10
2023-04-28T01:51:59.398Z,6.20
2023-04-28T01:54:44.871Z,7.90
2023-04-28T01:57:30.345Z,7.13
2023-04-28T02:00:17.053Z,6.07
2023-04-28T02:03:07.011Z,9.70
2023-04-28T02:05:53.867Z,8.75
2023-04-28T02:08:39.373Z,6.68
2023-04-28T02:11:24.816Z,7.07
2023-04-28T02:14:14.749Z,7.70
2023-04-28T02:16:59.994Z,6.22
2023-04-28T02:19:45.286Z,8.45
2023-04-28T02:22:31.721Z,8.35
2023-04-28T02:25:18.094Z,8.93
2023-04-28T02:28:03.957Z,10.65
2023-04-28T02:30:49.377Z,9.98
2023-04-28T02:33:35.678Z,7.53
2023-04-28T02:36:21.794Z,8.98
2023-04-28T02:39:07.355Z,6.95
2023-04-28T02:41:53.648Z,8.02
2023-04-28T02:44:39.283Z,9.05
2023-04-28T02:47:24.681Z,7.32
2023-04-28T02:50:10.800Z,7.65
2023-04-28T02:52:56.249Z,8.00
2023-04-28T02:55:41.605Z,7.68
2023-04-28T02:58:27.007Z,8.05
2023-04-28T03:01:12.388Z,8.85
2023-04-28T03:03:58.070Z,7.68
2023-04-28T03:06:44.140Z,9.63
2023-04-28T03:09:29.425Z,9.45
2023-04-28T03:12:14.767Z,7.82
2023-04-28T03:15:01.334Z,6.75
2023-04-28T03:17:46.655Z,7.82
2023-04-28T03:20:31.944Z,7.10
2023-04-28T03:23:17.148Z,8.68
2023-04-28T03:26:02.619Z,11.25
2023-04-28T03:28:47.957Z,11.02
2023-04-28T03:31:33.466Z,8.43
2023-04-28T03:34:19.964Z,7.20
2023-04-28T03:37:05.447Z,7.88
2023-04-28T03:39:50.946Z,9.48
2023-04-28T03:42:36.412Z,7.75
2023-04-28T03:45:26.394Z,7.80
2023-04-28T03:48:11.734Z,8.88
2023-04-28T03:50:57.082Z,7.57
2023-04-28T03:53:44.143Z,8.32
2023-04-28T03:56:29.373Z,12.63
2023-04-28T03:59:14.778Z,7.63
2023-04-28T04:02:01.618Z,12.15
2023-04-28T04:04:47.330Z,8.80
2023-04-28T04:07:32.904Z,10.30
2023-04-28T04:10:18.620Z,8.80
2023-04-28T04:13:03.682Z,11.20
2023-04-28T04:15:50.561Z,7.18
2023-04-28T04:18:36.266Z,8.15
2023-04-28T04:21:33.911Z,8.52
2023-04-28T04:24:19.457Z,7.63
2023-04-28T04:27:04.722Z,9.10
2023-04-28T04:29:53.274Z,8.88
2023-04-28T04:32:39.428Z,8.60
2023-04-28T04:35:24.782Z,7.38
2023-04-28T04:38:10.430Z,7.80
2023-04-28T04:40:55.909Z,10.15
2023-04-28T04:43:41.259Z,8.73
2023-04-28T04:46:26.886Z,7.55
2023-04-28T04:49:12.700Z,8.98
2023-04-28T04:51:58.468Z,9.18
2023-04-28T04:54:44.280Z,9.02
2023-04-28T04:57:29.846Z,8.82
2023-04-28T05:00:23.467Z,9.77
2023-04-28T05:03:09.600Z,8.02
2023-04-28T05:05:54.939Z,7.07
2023-04-28T05:08:59.280Z,8.00
2023-04-28T05:11:45.711Z,7.72
2023-04-28T05:14:31.045Z,5.75
2023-04-28T05:17:16.917Z,7.32
2023-04-28T05:20:02.721Z,6.85
2023-04-28T05:22:48.226Z,6.43
2023-04-28T05:25:33.803Z,7.97
2023-04-28T05:28:21.323Z,12.65
2023-04-28T05:31:08.406Z,11.52
2023-04-28T05:33:53.770Z,10.85
2023-04-28T05:36:39.647Z,11.10
2023-04-28T05:39:27.840Z,11.13
2023-04-28T05:42:15.813Z,14.43
2023-04-28T05:45:02.602Z,11.35
2023-04-28T05:47:48.299Z,12.23
2023-04-28T05:50:34.138Z,9.65
2023-04-28T05:53:20.749Z,9.88
2023-04-28T05:56:08.042Z,10.10
2023-04-28T05:58:53.399Z,9.18
2023-04-28T06:01:38.969Z,11.38
2023-04-28T06:04:26.382Z,7.68
2023-04-28T06:07:12.452Z,9.50
2023-04-28T06:09:58.008Z,8.23
2023-04-28T06:12:43.510Z,8.75
2023-04-28T06:15:28.882Z,9.95
2023-04-28T06:18:16.093Z,9.32
2023-04-28T06:21:01.291Z,7.57
2023-04-28T06:23:47.014Z,9.63
2023-04-28T06:26:32.579Z,8.48
2023-04-28T06:29:20.494Z,9.10
2023-04-28T06:32:05.974Z,9.40
2023-04-28T06:34:51.252Z,9.18
2023-04-28T06:37:36.691Z,10.60
2023-04-28T06:40:22.247Z,13.02
2023-04-28T06:43:13.483Z,10.20
2023-04-28T06:46:04.748Z,13.15
2023-04-28T06:48:50.897Z,14.32
2023-04-28T06:51:36.736Z,10.25
2023-04-28T06:54:22.906Z,13.05
2023-04-28T06:57:08.703Z,9.95
2023-04-28T06:59:53.771Z,12.50
2023-04-28T07:02:39.253Z,12.25
2023-04-28T07:05:24.567Z,9.48
2023-04-28T07:08:10.193Z,9.00
2023-04-28T07:10:55.226Z,10.43
2023-04-28T07:13:40.784Z,13.27
2023-04-28T07:16:26.746Z,12.30
2023-04-28T07:19:12.176Z,12.95
2023-04-28T07:21:57.604Z,11.90
2023-04-28T07:24:43.341Z,11.77
2023-04-28T07:27:28.479Z,15.32
2023-04-28T07:30:26.494Z,14.75
2023-04-28T07:33:12.933Z,12.20
2023-04-28T07:35:58.500Z,13.93
2023-04-28T07:38:43.937Z,11.05
2023-04-28T07:41:29.240Z,14.40
2023-04-28T07:44:14.871Z,12.68
2023-04-28T07:47:00.983Z,15.88
2023-04-28T07:49:46.412Z,14.23
2023-04-28T07:52:32.352Z,12.10
2023-04-28T07:55:17.886Z,11.98
2023-04-28T07:58:03.158Z,13.82
2023-04-28T08:00:48.496Z,11.40
2023-04-28T08:03:33.993Z,14.85
2023-04-28T08:06:19.335Z,11.70
2023-04-28T08:09:06.225Z,10.23
2023-04-28T08:11:51.320Z,13.55
2023-04-28T08:14:37.168Z,13.27
2023-04-28T08:17:22.273Z,13.85
2023-04-28T08:20:08.153Z,11.98
2023-04-28T08:22:53.661Z,14.88
2023-04-28T08:25:39.090Z,10.82
2023-04-28T08:28:24.764Z,14.57
2023-04-28T08:31:10.313Z,12.32
2023-04-28T08:33:55.774Z,10.57
2023-04-28T08:36:41.524Z,13.80
2023-04-28T08:39:27.085Z,11.40
2023-04-28T08:42:13.359Z,14.02
2023-04-28T08:45:02.002Z,12.52
2023-04-28T08:47:49.834Z,14.98
2023-04-28T08:50:36.826Z,12.57
2023-04-28T08:53:26.819Z,12.90
2023-04-28T08:56:15.222Z,12.25
2023-04-28T08:59:04.751Z,15.18
2023-04-28T09:01:50.756Z,13.35
2023-04-28T09:04:37.190Z,14.85
2023-04-28T09:07:23.234Z,12.68
2023-04-28T09:10:25.700Z,15.32
2023-04-28T09:13:23.479Z,14.05
2023-04-28T09:16:08.913Z,15.32
2023-04-28T09:18:58.192Z,14.57
2023-04-28T09:21:54.159Z,11.85
2023-04-28T09:24:42.786Z,11.70
2023-04-28T09:27:28.599Z,11.93
2023-04-28T09:30:14.763Z,11.10
2023-04-28T09:33:07.670Z,14.38
2023-04-28T09:35:54.420Z,10.82
2023-04-28T09:38:44.819Z,11.23
2023-04-28T09:41:36.706Z,10.40
2023-04-28T09:44:23.636Z,11.40
2023-04-28T09:47:23.700Z,9.45
2023-04-28T09:50:14.285Z,10.43
2023-04-28T09:52:59.970Z,12.70
2023-04-28T09:55:46.856Z,13.25
2023-04-28T09:58:35.282Z,10.85
2023-04-28T10:01:20.829Z,10.45
2023-04-28T10:04:07.318Z,10.57
2023-04-28T10:06:53.172Z,9.27
2023-04-28T10:09:39.615Z,8.40
2023-04-28T10:12:24.930Z,14.77
2023-04-28T10:15:12.011Z,10.65
2023-04-28T10:17:59.256Z,10.13
2023-04-28T10:20:48.862Z,10.52
2023-04-28T10:23:52.905Z,8.38
2023-04-28T10:26:58.668Z,8.32
2023-04-28T10:29:43.834Z,7.82
2023-04-28T10:32:30.906Z,8.38
2023-04-28T10:35:25.457Z,7.43
2023-04-28T10:38:18.580Z,8.52
2023-04-28T10:41:04.404Z,7.78
2023-04-28T10:43:50.679Z,7.28
2023-04-28T10:47:04.311Z,6.80
2023-04-28T10:50:06.831Z,7.15
2023-04-28T10:52:52.011Z,7.10
2023-04-28T10:55:37.552Z,7.05
2023-04-28T10:58:28.605Z,7.57
2023-04-28T11:01:30.675Z,7.00
2023-04-28T11:04:18.070Z,7.72
2023-04-28T11:07:11.347Z,8.35
2023-04-28T11:09:56.605Z,8.05
2023-04-28T11:13:19.843Z,8.38
2023-04-28T11:16:06.283Z,10.88
2023-04-28T11:18:57.423Z,11.27
2023-04-28T11:21:43.113Z,12.35
2023-04-28T11:24:29.584Z,14.70
2023-04-28T11:27:24.564Z,12.70
2023-04-28T11:30:22.769Z,11.77
2023-04-28T11:33:08.574Z,13.30
2023-04-28T11:35:53.937Z,14.50
2023-04-28T11:38:46.926Z,13.52
2023-04-28T11:41:32.408Z,14.90
2023-04-28T11:44:23.232Z,15.45
2023-04-28T11:47:08.276Z,15.00
2023-04-28T11:49:53.799Z,14.68
2023-04-28T11:52:51.048Z,12.80
2023-04-28T11:55:39.170Z,12.85
2023-04-28T11:58:25.189Z,13.27
2023-04-28T12:01:11.561Z,13.60
2023-04-28T12:03:57.666Z,12.20
2023-04-28T12:06:43.508Z,11.38
2023-04-28T12:09:29.317Z,11.38
2023-04-28T12:12:18.263Z,10.20
2023-04-28T12:15:08.334Z,9.25
2023-04-28T12:17:53.821Z,8.48
2023-04-28T12:20:39.572Z,10.25
2023-04-28T12:23:36.298Z,7.97
2023-04-28T12:26:25.687Z,7.60
2023-04-28T12:29:40.585Z,7.78
2023-04-28T12:32:45.263Z,7.95
2023-04-28T12:35:30.996Z,6.88
2023-04-28T12:38:17.008Z,6.18
2023-04-28T12:41:02.286Z,6.45
2023-04-28T12:43:47.723Z,5.50
2023-04-28T12:46:33.425Z,4.70
2023-04-28T12:49:18.976Z,3.85
2023-04-28T12:52:05.815Z,4.45
2023-04-28T12:54:51.292Z,4.03
2023-04-28T12:57:39.078Z,4.72
2023-04-28T13:00:25.108Z,6.45
2023-04-28T13:03:10.855Z,5.18
2023-04-28T13:05:56.325Z,7.32
2023-04-28T13:08:41.943Z,7.85
2023-04-28T13:11:28.639Z,9.75
2023-04-28T13:14:13.822Z,9.30
2023-04-28T13:16:59.126Z,11.93
2023-04-28T13:19:44.678Z,13.63
2023-04-28T13:22:30.494Z,12.23
2023-04-28T13:25:16.039Z,13.48
2023-04-28T13:28:01.853Z,13.25
2023-04-28T13:30:46.952Z,15.20
2023-04-28T13:33:32.847Z,12.20
2023-04-28T13:36:17.971Z,12.75
2023-04-28T13:39:03.478Z,14.07
2023-04-28T13:41:49.421Z,13.93
2023-04-28T13:44:35.068Z,16.63
2023-04-28T13:47:20.433Z,13.52
2023-04-28T13:50:06.244Z,14.38
2023-04-28T13:52:51.818Z,14.07
2023-04-28T13:55:37.698Z,14.88
2023-04-28T13:58:27.231Z,17.63
2023-04-28T14:01:12.578Z,16.02
2023-04-28T14:03:58.354Z,17.85
2023-04-28T14:06:44.027Z,16.17
2023-04-28T14:09:29.384Z,13.45
2023-04-28T14:12:15.515Z,14.55
2023-04-28T14:15:01.031Z,14.43
2023-04-28T14:17:48.131Z,15.68
2023-04-28T14:20:33.572Z,14.05
2023-04-28T14:23:19.056Z,15.05
2023-04-28T14:26:04.883Z,13.88
2023-04-28T14:28:50.051Z,12.00
2023-04-28T14:31:35.941Z,14.85
2023-04-28T14:34:21.569Z,14.23
2023-04-28T14:37:07.252Z,13.13
2023-04-28T14:39:53.071Z,12.45
2023-04-28T14:42:38.212Z,12.07
2023-04-28T14:45:23.769Z,12.88
2023-04-28T14:48:10.483Z,12.98
2023-04-28T14:50:55.921Z,13.65
2023-04-28T14:53:41.960Z,14.38
2023-04-28T14:56:27.551Z,14.68
2023-04-28T14:59:12.997Z,13.80
2023-04-28T15:01:58.710Z,13.60
2023-04-28T15:04:46.261Z,14.20
2023-04-28T15:07:32.587Z,12.32
2023-04-28T15:10:18.165Z,12.93
2023-04-28T15:13:03.958Z,13.52
2023-04-28T15:15:50.836Z,17.35
2023-04-28T15:18:36.273Z,16.33
2023-04-28T15:21:21.908Z,17.02
2023-04-28T15:24:07.374Z,14.43
2023-04-28T15:26:53.598Z,13.27
2023-04-28T15:29:39.098Z,14.13
2023-04-28T15:32:24.623Z,15.50
2023-04-28T15:35:10.629Z,15.93
2023-04-28T15:37:56.648Z,17.30
2023-04-28T15:40:42.404Z,16.98
2023-04-28T15:43:28.186Z,18.65
2023-04-28T15:46:14.884Z,19.25
2023-04-28T15:49:00.614Z,21.70
2023-04-28T15:51:45.923Z,19.90
2023-04-28T15:54:31.365Z,26.63
2023-04-28T15:57:16.813Z,18.38
2023-04-28T16:00:03.259Z,19.83
2023-04-28T16:02:53.337Z,21.15
2023-04-28T16:05:38.940Z,22.45
2023-04-28T16:08:25.251Z,23.83
2023-04-28T16:11:17.585Z,28.88
2023-04-28T16:14:03.228Z,24.38
2023-04-28T16:16:49.337Z,21.80
2023-04-28T16:19:34.587Z,23.92
2023-04-28T16:22:20.096Z,20.27
2023-04-28T16:25:06.527Z,18.05
2023-04-28T16:27:53.074Z,17.25
2023-04-28T16:30:38.304Z,19.45
2023-04-28T16:33:24.008Z,18.73
2023-04-28T16:36:09.201Z,19.73
2023-04-28T16:38:54.766Z,15.85
2023-04-28T16:41:40.199Z,19.80
2023-04-28T16:44:25.946Z,15.35
2023-04-28T16:47:10.966Z,15.85
2023-04-28T16:49:56.370Z,16.92
2023-04-28T16:52:42.209Z,15.20
2023-04-28T16:55:27.424Z,15.50
2023-04-28T16:58:12.848Z,12.13
2023-04-28T17:00:58.132Z,15.63
2023-04-28T17:03:44.935Z,12.65
2023-04-28T17:06:32.177Z,13.90
2023-04-28T17:09:18.372Z,14.32
2023-04-28T17:12:03.969Z,16.83
2023-04-28T17:14:50.871Z,13.85
2023-04-28T17:17:36.103Z,15.60
2023-04-28T17:20:22.266Z,14.93
2023-04-28T17:23:07.355Z,13.15
2023-04-28T17:25:52.833Z,14.35
2023-04-28T17:28:37.961Z,18.73
2023-04-28T17:31:23.345Z,16.88
2023-04-28T17:34:08.900Z,15.18
2023-04-28T17:36:54.272Z,20.40
2023-04-28T17:39:39.894Z,19.85
2023-04-28T17:42:25.439Z,25.13
2023-04-28T17:45:11.465Z,20.15
2023-04-28T17:48:00.272Z,18.75
2023-04-28T17:50:45.997Z,22.92
2023-04-28T17:53:31.570Z,22.50
2023-04-28T17:56:16.902Z,25.15
2023-04-28T17:59:02.147Z,26.15
2023-04-28T18:01:47.629Z,22.05
2023-04-28T18:04:33.039Z,27.85
2023-04-28T18:07:18.403Z,28.95
2023-04-28T18:10:04.025Z,26.70
2023-04-28T18:12:50.510Z,27.85
2023-04-28T18:15:37.455Z,29.35
2023-04-28T18:18:23.127Z,26.67
2023-04-28T18:21:08.404Z,28.80
2023-04-28T18:23:53.726Z,28.92
2023-04-28T18:26:39.111Z,31.17
2023-04-28T18:29:24.730Z,30.23
2023-04-28T18:32:12.783Z,33.50
2023-04-28T18:35:00.541Z,36.65
2023-04-28T18:37:46.233Z,35.75
2023-04-28T18:40:38.499Z,41.15
2023-04-28T18:43:25.739Z,41.28
2023-04-28T18:46:11.309Z,54.05
2023-04-28T18:48:56.755Z,46.08
2023-04-28T18:51:42.057Z,36.95
2023-04-28T18:54:28.896Z,38.80
2023-04-28T18:57:16.785Z,40.95
2023-04-28T19:00:02.165Z,43.75
2023-04-28T19:02:47.689Z,37.53
2023-04-28T19:05:33.840Z,47.38
2023-04-28T19:08:18.858Z,50.20
2023-04-28T19:11:07.369Z,42.67
2023-04-28T19:13:54.054Z,43.08
2023-04-28T19:16:39.337Z,43.03
2023-04-28T19:19:24.977Z,42.75
2023-04-28T19:22:30.630Z,43.97
2023-04-28T19:25:16.609Z,50.20
2023-04-28T19:28:01.610Z,49.08
2023-04-28T19:30:47.192Z,41.55
2023-04-28T19:33:32.714Z,45.20
2023-04-28T19:36:17.837Z,39.70
2023-04-28T19:39:03.745Z,36.70
2023-04-28T19:41:49.388Z,38.38
2023-04-28T19:44:34.756Z,33.25
2023-04-28T19:47:31.404Z,32.40
2023-04-28T19:50:20.239Z,34.58
2023-04-28T19:53:08.330Z,27.42
2023-04-28T19:55:53.538Z,29.00
2023-04-28T19:58:39.770Z,30.75
2023-04-28T20:01:25.559Z,28.33
2023-04-28T20:04:11.244Z,32.38
2023-04-28T20:06:56.585Z,27.58
2023-04-28T20:09:42.012Z,29.08
2023-04-28T20:12:27.562Z,27.55
2023-04-28T20:15:13.658Z,27.17
2023-04-28T20:17:58.745Z,28.80
2023-04-28T20:20:44.638Z,25.02
2023-04-28T20:23:30.541Z,26.10
2023-04-28T20:26:16.476Z,24.70
2023-04-28T20:29:01.810Z,23.65
2023-04-28T20:31:47.224Z,24.05
2023-04-28T20:34:32.422Z,24.27
2023-04-28T20:37:17.741Z,20.48
2023-04-28T20:40:04.702Z,24.15
2023-04-28T20:42:50.063Z,25.10
2023-04-28T20:45:35.582Z,21.17
2023-04-28T20:48:21.294Z,19.83
2023-04-28T20:51:07.492Z,17.92
2023-04-28T20:53:52.735Z,14.85
2023-04-28T20:56:38.198Z,15.13
2023-04-28T20:59:23.569Z,15.65
2023-04-28T21:02:09.206Z,17.92
2023-04-28T21:04:54.622Z,15.38
2023-04-28T21:07:40.481Z,14.93
2023-04-28T21:10:25.562Z,13.25
2023-04-28T21:13:12.060Z,14.93
2023-04-28T21:15:57.690Z,16.98
2023-04-28T21:18:44.209Z,13.73
2023-04-28T21:21:29.653Z,15.05
2023-04-28T21:24:15.067Z,13.95
2023-04-28T21:27:00.655Z,12.75
2023-04-28T21:29:46.318Z,13.82
2023-04-28T21:32:31.842Z,12.57
2023-04-28T21:35:17.433Z,13.23
2023-04-28T21:38:03.243Z,14.38
2023-04-28T21:40:49.136Z,14.98
2023-04-28T21:43:34.849Z,16.40
2023-04-28T21:46:20.370Z,17.88
2023-04-28T21:49:05.650Z,15.07
2023-04-28T21:51:50.748Z,13.18
2023-04-28T21:54:36.163Z,11.50
2023-04-28T21:57:21.583Z,13.82
2023-04-28T22:00:10.582Z,16.85
2023-04-28T22:02:59.005Z,14.03
2023-04-28T22:05:45.137Z,16.17
2023-04-28T22:08:31.230Z,18.23
2023-04-28T22:11:16.966Z,25.67
2023-04-28T22:14:02.479Z,24.52
2023-04-28T22:16:47.981Z,26.92
2023-04-28T22:19:34.193Z,28.30
2023-04-28T22:22:20.461Z,30.02
2023-04-28T22:25:06.660Z,28.70
2023-04-28T22:27:51.973Z,26.30
2023-04-28T22:30:37.734Z,31.38
2023-04-28T22:33:23.109Z,28.90
2023-04-28T22:36:08.742Z,33.28
2023-04-28T22:38:54.594Z,34.88
2023-04-28T22:41:39.822Z,34.75
2023-04-28T22:44:25.059Z,32.83
2023-04-28T22:47:10.633Z,28.67
2023-04-28T22:49:55.971Z,41.58
2023-04-28T22:52:41.558Z,36.83
2023-04-28T22:55:27.366Z,37.45
2023-04-28T22:58:12.692Z,42.08
2023-04-28T23:01:01.437Z,43.00
2023-04-28T23:03:50.480Z,35.17
2023-04-28T23:06:36.204Z,39.85
2023-04-28T23:09:21.726Z,37.50
2023-04-28T23:12:07.324Z,38.15
2023-04-28T23:14:52.849Z,37.67
2023-04-28T23:17:38.127Z,34.33
2023-04-28T23:20:23.425Z,34.75
2023-04-28T23:23:08.853Z,35.17
2023-04-28T23:25:55.581Z,39.65
2023-04-28T23:28:40.773Z,28.98
2023-04-28T23:31:26.630Z,33.35
2023-04-28T23:34:11.780Z,31.63
2023-04-28T23:36:58.638Z,35.17
2023-04-28T23:39:44.339Z,32.40
2023-04-28T23:42:48.908Z,32.45
2023-04-28T23:45:34.000Z,27.08
2023-04-28T23:48:19.385Z,26.67
2023-04-28T23:51:04.727Z,27.40
2023-04-28T23:53:50.198Z,35.00
2023-04-28T23:56:35.355Z,26.83
2023-04-28T23:59:20.837Z,28.13
